Time;durP1;ratioP1;P1;durP2;ratioP2;P2;SDS_P1;SDS_P2;PMS_P1;PMS_P2;Temp;Humidity;BMP_temperature;BMP_pressure;BME280_temperature;BME280_humidity;BME280_pressure;Samples;Min_cycle;Max_cycle;Signal;HPM_P1;HPM_P2
2023/03/25 00:00:18;;;;;;;3.40;0.70;;;24.20;99.90;;;;;;5016756;28;20026;-65
2023/03/25 00:02:50;;;;;;;3.45;0.82;;;24.10;99.90;;;;;;5014714;28;20029;-64
2023/03/25 00:05:20;;;;;;;4.78;1.35;;;24.00;99.90;;;;;;5018875;28;20113;-63
2023/03/25 00:07:51;;;;;;;2.03;0.70;;;23.90;99.90;;;;;;5024877;28;20045;-64
2023/03/25 00:10:19;;;;;;;4.88;0.93;;;23.90;99.90;;;;;;5023635;28;20045;-64
2023/03/25 00:12:46;;;;;;;2.53;0.90;;;23.90;99.90;;;;;;5021613;28;20036;-65
2023/03/25 00:15:16;;;;;;;1.42;0.70;;;23.90;99.90;;;;;;5024687;28;20026;-64
2023/03/25 00:17:44;;;;;;;6.55;1.20;;;24.10;99.90;;;;;;5025377;28;20030;-64
2023/03/25 00:20:12;;;;;;;3.67;0.60;;;24.20;99.90;;;;;;5023752;28;20083;-63
2023/03/25 00:22:42;;;;;;;3.33;0.82;;;24.50;99.90;;;;;;5023165;28;20025;-63
2023/03/25 00:25:15;;;;;;;3.97;0.70;;;24.60;99.90;;;;;;5024548;28;20025;-63
2023/03/25 00:27:45;;;;;;;5.35;0.70;;;24.80;99.90;;;;;;5024467;28;20041;-63
2023/03/25 00:30:13;;;;;;;3.60;0.90;;;25.00;99.90;;;;;;5023012;28;20044;-63
2023/03/25 00:32:44;;;;;;;7.82;0.80;;;25.10;99.90;;;;;;5025071;28;20030;-63
2023/03/25 00:35:12;;;;;;;3.83;0.93;;;25.00;99.90;;;;;;5022707;28;20132;-63
2023/03/25 00:37:40;;;;;;;2.63;0.70;;;25.00;99.90;;;;;;5025697;28;20022;-64
2023/03/25 00:40:08;;;;;;;3.20;0.80;;;24.90;99.90;;;;;;5025036;28;20033;-63
2023/03/25 00:42:35;;;;;;;5.88;0.90;;;24.70;99.90;;;;;;5023551;28;20083;-63
2023/03/25 00:45:03;;;;;;;2.70;0.60;;;24.60;99.90;;;;;;5022481;28;20025;-63
2023/03/25 00:47:31;;;;;;;5.68;0.98;;;24.60;99.90;;;;;;5023717;28;20045;-65
2023/03/25 00:49:58;;;;;;;2.75;0.77;;;24.60;99.90;;;;;;5025453;28;20029;-63
2023/03/25 00:52:25;;;;;;;5.28;0.90;;;24.50;99.90;;;;;;5024534;28;20029;-63
2023/03/25 00:54:53;;;;;;;6.43;0.93;;;24.30;99.90;;;;;;5024202;28;20057;-63
2023/03/25 00:57:21;;;;;;;2.60;0.90;;;24.20;99.90;;;;;;5024198;28;20029;-63
2023/03/25 00:59:48;;;;;;;3.28;0.70;;;24.00;99.90;;;;;;5024809;28;20022;-62
2023/03/25 01:02:20;;;;;;;4.57;0.70;;;24.10;99.90;;;;;;5027517;28;20198;-63
2023/03/25 01:04:48;;;;;;;3.67;0.77;;;24.30;99.90;;;;;;5024768;28;20041;-63
2023/03/25 01:07:17;;;;;;;2.90;0.70;;;24.50;99.90;;;;;;5019282;28;20044;-63
2023/03/25 01:09:45;;;;;;;4.50;0.88;;;24.70;99.90;;;;;;5018438;28;20052;-65
2023/03/25 01:12:17;;;;;;;4.93;0.90;;;24.80;99.90;;;;;;5023339;28;20032;-63
2023/03/25 01:14:45;;;;;;;4.03;1.23;;;24.90;99.90;;;;;;5026601;28;20120;-64
2023/03/25 01:17:12;;;;;;;4.68;1.02;;;24.80;99.90;;;;;;5026458;28;20025;-62
2023/03/25 01:19:40;;;;;;;2.53;0.60;;;24.90;99.90;;;;;;5025480;28;20868;-62
2023/03/25 01:22:07;;;;;;;6.47;0.90;;;25.10;99.90;;;;;;5024978;28;20048;-62
2023/03/25 01:24:35;;;;;;;4.70;0.80;;;25.20;99.90;;;;;;5027086;28;20021;-62
2023/03/25 01:27:02;;;;;;;3.28;0.73;;;25.30;99.90;;;;;;5028407;28;20390;-62
2023/03/25 01:29:30;;;;;;;2.13;0.70;;;25.40;99.90;;;;;;5024565;28;20030;-62
2023/03/25 01:31:58;;;;;;;3.42;0.80;;;25.40;99.90;;;;;;5027018;28;20505;-63
2023/03/25 01:34:26;;;;;;;4.03;0.82;;;25.30;99.70;;;;;;5029021;28;20247;-65
2023/03/25 01:36:54;;;;;;;3.15;0.75;;;25.30;99.90;;;;;;5028407;28;20115;-62
2023/03/25 01:39:22;;;;;;;2.95;0.80;;;25.40;99.90;;;;;;5032260;28;20507;-62
2023/03/25 01:41:50;;;;;;;3.97;1.00;;;25.60;99.90;;;;;;5028223;28;20026;-61
2023/03/25 01:44:21;;;;;;;6.75;1.10;;;25.90;99.60;;;;;;5030804;28;20028;-62
2023/03/25 01:46:51;;;;;;;3.75;0.98;;;26.10;99.00;;;;;;5032304;28;20096;-62
2023/03/25 01:49:28;;;;;;;3.45;0.80;;;26.30;99.00;;;;;;5032878;28;20021;-61
2023/03/25 01:52:11;;;;;;;2.80;0.80;;;26.10;99.90;;;;;;5032676;28;20382;-61
2023/03/25 01:54:40;;;;;;;2.00;0.60;;;25.90;99.80;;;;;;5031875;28;20103;-60
2023/03/25 01:57:09;;;;;;;5.90;1.20;;;26.00;99.90;;;;;;5031967;28;20025;-61
2023/03/25 01:59:39;;;;;;;2.47;0.98;;;26.00;98.30;;;;;;5017910;28;20037;-63
2023/03/25 02:02:09;;;;;;;3.80;0.90;;;26.00;95.70;;;;;;5032208;28;20413;-62
2023/03/25 02:05:02;;;;;;;4.07;0.90;;;25.50;97.60;;;;;;5032265;28;20017;-61
2023/03/25 02:07:33;;;;;;;2.38;0.77;;;25.40;98.10;;;;;;5031918;28;20052;-62
2023/03/25 02:10:07;;;;;;;3.03;0.60;;;25.20;99.10;;;;;;5032402;28;20020;-62
2023/03/25 02:12:34;;;;;;;3.40;1.00;;;25.10;99.90;;;;;;5030714;28;20072;-62
2023/03/25 02:15:06;;;;;;;2.63;0.93;;;25.00;99.90;;;;;;5031415;28;20143;-62
2023/03/25 02:18:07;;;;;;;4.90;0.88;;;24.90;99.90;;;;;;5033156;28;20026;-62
2023/03/25 02:20:46;;;;;;;4.10;1.48;;;24.80;99.90;;;;;;5030093;28;20668;-62
2023/03/25 02:23:27;;;;;;;3.42;0.90;;;24.80;99.90;;;;;;5034195;28;20070;-61
2023/03/25 02:25:57;;;;;;;3.53;1.08;;;24.80;99.90;;;;;;5029976;28;20052;-62
2023/03/25 02:29:05;;;;;;;3.67;0.90;;;24.70;97.90;;;;;;5033886;28;20435;-62
2023/03/25 02:32:30;;;;;;;3.72;1.10;;;24.40;99.90;;;;;;5025851;28;20038;-61
2023/03/25 02:35:27;;;;;;;5.15;1.00;;;23.90;99.90;;;;;;4976588;28;20167;-61
2023/03/25 02:38:05;;;;;;;3.42;0.90;;;23.60;99.90;;;;;;5022509;28;20029;-59
2023/03/25 02:41:07;;;;;;;4.38;1.00;;;23.50;99.90;;;;;;5016976;28;20080;-62
2023/03/25 02:43:45;;;;;;;3.20;1.08;;;23.40;99.90;;;;;;5025118;28;20133;-60
2023/03/25 02:46:17;;;;;;;5.25;1.00;;;23.50;99.90;;;;;;5027669;28;20499;-61
2023/03/25 02:48:59;;;;;;;3.05;0.98;;;23.60;99.90;;;;;;5027657;28;20040;-62
2023/03/25 02:51:50;;;;;;;4.20;0.98;;;23.60;99.90;;;;;;5023715;28;20060;-62
2023/03/25 02:54:20;;;;;;;5.50;0.93;;;23.70;99.90;;;;;;5024599;28;20112;-62
2023/03/25 02:56:56;;;;;;;6.60;1.42;;;23.80;99.90;;;;;;5029860;28;20056;-60
2023/03/25 02:59:31;;;;;;;5.53;0.85;;;23.80;99.90;;;;;;5029167;28;20033;-60
2023/03/25 03:02:07;;;;;;;9.30;1.60;;;23.90;99.90;;;;;;5027669;28;20071;-60
2023/03/25 03:04:46;;;;;;;4.20;1.00;;;24.00;99.90;;;;;;5028899;28;20036;-60
2023/03/25 03:07:24;;;;;;;7.20;1.05;;;24.20;99.90;;;;;;5025375;28;20136;-61
2023/03/25 03:10:03;;;;;;;3.67;1.73;;;24.10;99.90;;;;;;5028357;28;20478;-61
2023/03/25 03:13:11;;;;;;;3.72;0.80;;;23.90;99.90;;;;;;5028252;28;20033;-61
2023/03/25 03:16:12;;;;;;;5.90;1.42;;;23.80;99.90;;;;;;5029275;28;20033;-61
2023/03/25 03:18:56;;;;;;;2.25;0.88;;;23.70;99.90;;;;;;5023119;28;20026;-61
2023/03/25 03:21:40;;;;;;;3.42;1.10;;;23.70;99.90;;;;;;5025732;28;20025;-61
2023/03/25 03:24:19;;;;;;;3.75;1.00;;;23.70;99.90;;;;;;5024196;28;20421;-61
2023/03/25 03:27:24;;;;;;;6.55;1.60;;;23.60;99.90;;;;;;5030728;28;20087;-62
2023/03/25 03:30:31;;;;;;;3.15;0.93;;;23.60;99.90;;;;;;5022149;28;20037;-62
2023/03/25 03:33:08;;;;;;;4.85;0.80;;;23.60;99.90;;;;;;5015296;28;20431;-62
2023/03/25 03:35:49;;;;;;;4.18;0.90;;;23.50;99.90;;;;;;5030359;28;20074;-62
2023/03/25 03:38:19;;;;;;;3.80;0.90;;;23.50;99.90;;;;;;5028244;28;20025;-64
2023/03/25 03:40:53;;;;;;;4.13;1.15;;;23.40;99.90;;;;;;5027967;28;20116;-62
2023/03/25 03:43:41;;;;;;;4.88;1.00;;;23.40;99.90;;;;;;5028700;28;20037;-62
2023/03/25 03:46:53;;;;;;;5.47;0.93;;;23.40;99.90;;;;;;5025143;28;20122;-61
2023/03/25 03:49:26;;;;;;;4.05;1.20;;;23.30;99.90;;;;;;5024993;28;20068;-61
2023/03/25 03:52:12;;;;;;;3.13;0.80;;;23.30;99.90;;;;;;5029513;28;20025;-62
2023/03/25 03:54:52;;;;;;;4.05;1.25;;;23.30;99.90;;;;;;5029033;28;20038;-62
2023/03/25 03:57:44;;;;;;;6.35;1.10;;;23.30;99.90;;;;;;5029144;28;20516;-62
2023/03/25 04:00:48;;;;;;;5.55;1.27;;;23.30;99.90;;;;;;5027779;28;20033;-62
2023/03/25 04:03:37;;;;;;;3.55;0.98;;;23.20;99.90;;;;;;5024815;28;20065;-62
2023/03/25 04:06:34;;;;;;;2.15;0.70;;;23.20;99.90;;;;;;5030791;28;20029;-62
2023/03/25 04:09:32;;;;;;;6.05;0.90;;;23.30;99.90;;;;;;4978232;28;20062;-62
2023/03/25 04:12:10;;;;;;;3.55;1.35;;;23.40;99.90;;;;;;4983944;28;20014;-62
2023/03/25 04:14:38;;;;;;;5.22;1.38;;;23.40;99.90;;;;;;4976988;28;20530;-62
2023/03/25 04:17:06;;;;;;;1.63;0.75;;;23.40;99.90;;;;;;4974739;28;20023;-63
2023/03/25 04:19:33;;;;;;;6.63;1.55;;;23.50;99.90;;;;;;4985445;28;20059;-61
2023/03/25 04:22:03;;;;;;;4.60;1.40;;;23.60;99.90;;;;;;4990608;28;20419;-62
2023/03/25 04:24:31;;;;;;;4.85;1.75;;;23.70;99.90;;;;;;4990816;28;20033;-62
2023/03/25 04:27:03;;;;;;;4.30;1.10;;;23.70;99.90;;;;;;4985002;28;20030;-63
2023/03/25 04:29:31;;;;;;;2.83;1.27;;;23.70;99.90;;;;;;4983427;28;20112;-62
2023/03/25 04:31:59;;;;;;;3.22;1.50;;;23.50;99.90;;;;;;4982814;28;20834;-63
2023/03/25 04:34:28;;;;;;;4.25;1.20;;;23.40;99.90;;;;;;4983960;28;20042;-62
2023/03/25 04:36:55;;;;;;;2.55;1.02;;;23.20;99.90;;;;;;4981162;28;20484;-62
2023/03/25 04:39:23;;;;;;;4.75;1.17;;;23.30;99.90;;;;;;4985703;28;20133;-64
2023/03/25 04:42:00;;;;;;;3.42;0.95;;;23.30;99.90;;;;;;4980781;28;20019;-62
2023/03/25 04:44:32;;;;;;;7.90;1.65;;;23.40;99.90;;;;;;4980339;28;20510;-62
2023/03/25 04:47:01;;;;;;;3.85;0.93;;;23.40;99.90;;;;;;4980981;28;20146;-62
2023/03/25 04:49:28;;;;;;;2.22;1.00;;;23.50;99.90;;;;;;4998698;28;20091;-62
2023/03/25 04:51:56;;;;;;;6.07;1.10;;;23.50;99.90;;;;;;4984781;28;20023;-63
2023/03/25 04:54:24;;;;;;;5.95;1.48;;;23.30;99.90;;;;;;4985984;28;20185;-63
2023/03/25 04:56:52;;;;;;;4.38;1.20;;;23.20;99.90;;;;;;4989548;28;20049;-62
2023/03/25 04:59:21;;;;;;;3.55;1.02;;;23.10;99.90;;;;;;4975270;28;20025;-62
2023/03/25 05:01:49;;;;;;;4.20;1.63;;;23.20;99.90;;;;;;5001599;28;20030;-61
2023/03/25 05:04:17;;;;;;;3.47;1.95;;;23.10;99.90;;;;;;4998213;28;20022;-63
2023/03/25 05:06:48;;;;;;;3.47;1.13;;;23.10;99.90;;;;;;5005105;28;20026;-63
2023/03/25 05:09:23;;;;;;;4.93;1.23;;;23.00;99.90;;;;;;5019808;28;20034;-62
2023/03/25 05:11:53;;;;;;;3.22;1.10;;;23.00;99.90;;;;;;5021961;28;20105;-62
2023/03/25 05:14:21;;;;;;;3.40;1.10;;;23.00;99.90;;;;;;5025816;28;20033;-62
2023/03/25 05:16:49;;;;;;;7.65;2.60;;;22.90;99.90;;;;;;5028251;28;20100;-62
2023/03/25 05:19:17;;;;;;;5.13;1.30;;;22.90;99.90;;;;;;5030878;28;20025;-62
2023/03/25 05:21:45;;;;;;;3.55;1.20;;;22.80;99.90;;;;;;5034612;28;20025;-62
2023/03/25 05:24:13;;;;;;;5.03;1.27;;;22.80;99.90;;;;;;5049107;28;20071;-62
2023/03/25 05:26:41;;;;;;;3.75;1.25;;;22.80;99.90;;;;;;5033254;28;20029;-63
2023/03/25 05:29:14;;;;;;;3.60;1.33;;;22.90;99.90;;;;;;5039046;28;20056;-62
2023/03/25 05:31:44;;;;;;;3.03;1.50;;;23.00;99.90;;;;;;5028766;28;20032;-62
2023/03/25 05:34:13;;;;;;;4.78;1.67;;;23.00;99.90;;;;;;5029063;28;20125;-62
2023/03/25 05:36:40;;;;;;;2.58;1.25;;;23.00;99.90;;;;;;5028375;28;20426;-62
2023/03/25 05:39:09;;;;;;;5.15;1.40;;;23.00;99.90;;;;;;5027668;28;20033;-63
2023/03/25 05:41:40;;;;;;;3.33;1.13;;;23.00;99.90;;;;;;5026596;28;20172;-62
2023/03/25 05:44:14;;;;;;;4.05;1.40;;;23.00;99.90;;;;;;5027662;28;20036;-62
2023/03/25 05:46:41;;;;;;;6.38;1.45;;;22.90;99.90;;;;;;5030435;28;20040;-62
2023/03/25 05:49:08;;;;;;;4.85;1.77;;;22.70;99.90;;;;;;5046590;28;20187;-62
2023/03/25 05:51:36;;;;;;;5.65;1.30;;;22.70;99.90;;;;;;5037839;28;20029;-62
2023/03/25 05:54:09;;;;;;;5.68;1.30;;;22.60;99.90;;;;;;5028059;28;20398;-62
2023/03/25 05:56:37;;;;;;;5.88;1.88;;;22.60;99.90;;;;;;5033050;28;20276;-62
2023/03/25 05:59:04;;;;;;;5.20;1.52;;;22.50;99.90;;;;;;5029734;28;20041;-62
2023/03/25 06:01:32;;;;;;;6.15;1.98;;;22.40;99.90;;;;;;5030751;28;20105;-62
2023/03/25 06:04:01;;;;;;;4.75;2.20;;;22.30;99.90;;;;;;5033526;28;20553;-62
2023/03/25 06:06:30;;;;;;;6.05;1.80;;;22.30;99.90;;;;;;5022580;28;20022;-63
2023/03/25 06:08:58;;;;;;;3.70;1.60;;;22.30;99.90;;;;;;5025715;28;20037;-63
2023/03/25 06:11:25;;;;;;;4.20;1.30;;;22.30;99.90;;;;;;5030599;28;20478;-62
2023/03/25 06:13:52;;;;;;;4.80;1.60;;;22.30;99.90;;;;;;5034895;28;20199;-62
2023/03/25 06:16:26;;;;;;;6.10;1.40;;;22.30;99.90;;;;;;5039904;28;20040;-62
2023/03/25 06:18:58;;;;;;;8.05;1.83;;;22.30;99.90;;;;;;5031264;28;20494;-62
2023/03/25 06:21:31;;;;;;;5.45;1.67;;;22.20;99.90;;;;;;5029065;28;20102;-62
2023/03/25 06:24:03;;;;;;;4.67;1.70;;;22.20;99.90;;;;;;5047203;28;20025;-62
2023/03/25 06:26:31;;;;;;;6.13;1.45;;;22.20;99.90;;;;;;5031084;28;20021;-63
2023/03/25 06:28:58;;;;;;;3.30;1.38;;;22.10;99.90;;;;;;5040158;28;20497;-63
2023/03/25 06:31:26;;;;;;;6.55;1.40;;;22.00;99.90;;;;;;5037028;28;20028;-63
2023/03/25 06:33:55;;;;;;;3.20;1.30;;;21.90;99.90;;;;;;5047990;28;20032;-62
2023/03/25 06:36:24;;;;;;;3.80;1.20;;;21.80;99.90;;;;;;5036409;28;20029;-62
2023/03/25 06:38:52;;;;;;;3.05;1.42;;;21.70;99.90;;;;;;5032868;28;20026;-61
2023/03/25 06:41:20;;;;;;;3.65;1.30;;;21.60;99.90;;;;;;5036415;28;20033;-63
2023/03/25 06:43:48;;;;;;;4.25;1.40;;;21.60;99.90;;;;;;5032815;28;20025;-64
2023/03/25 06:46:16;;;;;;;3.33;1.17;;;21.60;99.90;;;;;;5029909;28;20017;-63
2023/03/25 06:48:43;;;;;;;4.60;1.88;;;21.50;99.90;;;;;;5031259;28;20020;-63
2023/03/25 06:51:11;;;;;;;3.75;1.27;;;21.50;99.90;;;;;;5029541;28;20021;-62
2023/03/25 06:53:38;;;;;;;2.60;1.08;;;21.50;99.90;;;;;;5031548;28;20048;-63
2023/03/25 06:56:06;;;;;;;2.83;1.42;;;21.50;99.90;;;;;;5034204;28;20027;-62
2023/03/25 06:58:37;;;;;;;6.47;1.25;;;21.40;99.90;;;;;;5030518;28;20060;-63
2023/03/25 07:01:05;;;;;;;3.33;1.38;;;21.30;99.90;;;;;;5024242;28;20021;-63
2023/03/25 07:03:35;;;;;;;3.80;0.75;;;21.20;99.90;;;;;;5027482;28;20030;-63
2023/03/25 07:06:03;;;;;;;5.05;1.05;;;21.10;99.90;;;;;;5030217;28;20040;-62
2023/03/25 07:08:31;;;;;;;4.85;1.10;;;20.90;99.90;;;;;;5031360;28;20038;-61
2023/03/25 07:11:06;;;;;;;7.65;1.42;;;20.70;99.90;;;;;;5031031;28;20026;-63
2023/03/25 07:13:34;;;;;;;3.38;1.10;;;20.60;99.90;;;;;;5026629;28;20160;-63
2023/03/25 07:16:02;;;;;;;4.55;1.20;;;20.50;99.90;;;;;;5030658;28;20048;-62
2023/03/25 07:18:30;;;;;;;2.95;1.02;;;20.30;99.90;;;;;;5021964;28;20021;-63
2023/03/25 07:20:57;;;;;;;6.57;0.90;;;20.20;99.90;;;;;;5021076;28;20040;-63
2023/03/25 07:23:25;;;;;;;5.32;1.00;;;20.10;99.90;;;;;;5029246;28;20521;-62
2023/03/25 07:25:53;;;;;;;4.80;1.00;;;19.90;99.90;;;;;;5027549;28;20032;-63
2023/03/25 07:28:20;;;;;;;8.45;1.25;;;19.80;99.90;;;;;;5028996;28;20397;-60
2023/03/25 07:30:47;;;;;;;6.65;1.40;;;19.80;99.90;;;;;;5022843;28;20022;-62
2023/03/25 07:33:15;;;;;;;6.20;1.70;;;19.70;99.90;;;;;;5023724;28;20082;-62
2023/03/25 07:35:42;;;;;;;11.35;4.30;;;19.60;99.90;;;;;;5031031;28;20121;-61
2023/03/25 07:38:10;;;;;;;11.18;2.88;;;19.60;99.90;;;;;;5039702;28;20488;-64
2023/03/25 07:40:38;;;;;;;9.57;2.25;;;19.60;99.90;;;;;;5025479;28;20026;-64
2023/03/25 07:43:05;;;;;;;5.03;1.10;;;19.50;99.90;;;;;;5032647;28;20025;-61
2023/03/25 07:45:33;;;;;;;3.05;1.30;;;19.50;99.90;;;;;;5031848;28;20026;-61
2023/03/25 07:48:01;;;;;;;8.85;2.40;;;19.40;99.90;;;;;;5032405;28;20398;-63
2023/03/25 07:50:29;;;;;;;6.18;2.10;;;19.40;99.90;;;;;;5045160;28;20101;-64
2023/03/25 07:52:56;;;;;;;7.68;2.00;;;19.30;99.90;;;;;;5027245;28;20021;-62
2023/03/25 07:55:24;;;;;;;10.60;1.90;;;19.30;99.90;;;;;;5026952;28;20033;-62
2023/03/25 07:57:51;;;;;;;7.13;1.92;;;19.30;99.90;;;;;;5029565;28;20029;-62
2023/03/25 08:00:19;;;;;;;13.48;3.25;;;19.20;99.90;;;;;;5026437;28;20036;-62
2023/03/25 08:02:46;;;;;;;9.75;1.73;;;19.20;99.90;;;;;;5028907;28;20032;-64
2023/03/25 08:05:20;;;;;;;7.20;1.60;;;19.20;99.90;;;;;;5026133;28;20040;-63
2023/03/25 08:07:51;;;;;;;12.65;1.95;;;19.30;99.90;;;;;;5021110;28;20037;-63
2023/03/25 08:10:19;;;;;;;9.00;2.25;;;19.20;99.90;;;;;;5026415;28;20029;-62
2023/03/25 08:12:47;;;;;;;8.52;2.10;;;19.30;99.90;;;;;;5027961;28;20041;-63
2023/03/25 08:15:16;;;;;;;4.60;1.55;;;19.30;99.90;;;;;;5030696;28;20432;-62
2023/03/25 08:17:44;;;;;;;7.70;1.85;;;19.20;99.90;;;;;;5029125;28;20490;-63
2023/03/25 08:20:13;;;;;;;5.53;1.48;;;19.20;99.90;;;;;;5030617;28;20100;-63
2023/03/25 08:22:43;;;;;;;4.75;1.45;;;19.10;99.90;;;;;;5030144;28;20025;-63
2023/03/25 08:25:10;;;;;;;7.95;2.22;;;19.10;99.90;;;;;;5031059;28;20034;-61
2023/03/25 08:27:39;;;;;;;7.53;2.60;;;19.10;99.90;;;;;;5030746;28;20407;-61
2023/03/25 08:30:09;;;;;;;9.13;3.25;;;19.10;99.90;;;;;;5029990;28;20048;-61
2023/03/25 08:32:37;;;;;;;10.07;3.80;;;19.10;99.90;;;;;;5028051;28;20017;-60
2023/03/25 08:35:05;;;;;;;15.10;4.15;;;19.10;99.90;;;;;;5025645;28;20402;-60
2023/03/25 08:37:34;;;;;;;12.10;4.43;;;19.10;99.90;;;;;;5029098;28;20021;-61
2023/03/25 08:40:06;;;;;;;9.25;3.78;;;19.10;99.90;;;;;;5023337;28;20021;-60
2023/03/25 08:42:33;;;;;;;10.65;3.25;;;19.00;99.90;;;;;;5034295;28;20036;-61
2023/03/25 08:45:01;;;;;;;8.27;4.05;;;19.00;99.90;;;;;;5036653;28;21634;-61
2023/03/25 08:47:28;;;;;;;12.90;3.53;;;19.00;99.90;;;;;;5025362;28;20397;-60
2023/03/25 08:49:56;;;;;;;10.60;2.92;;;19.00;99.90;;;;;;5024949;28;20021;-60
2023/03/25 08:52:26;;;;;;;10.05;3.10;;;19.10;99.90;;;;;;5015523;28;20033;-61
2023/03/25 08:54:53;;;;;;;9.13;3.55;;;19.00;99.90;;;;;;5028321;28;20119;-60
2023/03/25 08:57:21;;;;;;;10.02;4.15;;;19.00;99.90;;;;;;5027000;28;20017;-60
2023/03/25 08:59:49;;;;;;;12.57;3.72;;;19.00;99.90;;;;;;5020969;28;20458;-60
2023/03/25 09:02:19;;;;;;;8.63;3.15;;;18.90;99.90;;;;;;5021078;28;20101;-60
2023/03/25 09:04:50;;;;;;;7.80;2.95;;;18.90;99.90;;;;;;5024737;28;20036;-66
2023/03/25 09:07:18;;;;;;;6.43;3.33;;;18.90;99.90;;;;;;4927016;28;2772358;-64
2023/03/25 09:09:46;;;;;;;7.22;3.20;;;18.90;99.90;;;;;;5017782;28;20029;-60
2023/03/25 09:12:14;;;;;;;8.43;3.28;;;18.90;99.90;;;;;;5015136;28;20029;-60
2023/03/25 09:14:41;;;;;;;12.18;3.50;;;18.90;99.90;;;;;;5021594;28;20042;-62
2023/03/25 09:17:09;;;;;;;12.98;3.28;;;18.90;99.90;;;;;;5021921;28;20021;-59
2023/03/25 09:19:37;;;;;;;17.92;5.30;;;18.90;99.90;;;;;;5034650;28;20072;-62
2023/03/25 09:22:05;;;;;;;12.73;3.53;;;19.00;99.90;;;;;;5028073;28;20096;-61
2023/03/25 09:24:34;;;;;;;7.38;3.20;;;19.00;99.90;;;;;;5032287;28;20029;-60
2023/03/25 09:27:02;;;;;;;13.10;3.65;;;18.90;99.90;;;;;;5026014;28;20088;-60
2023/03/25 09:29:30;;;;;;;14.80;3.55;;;18.90;99.90;;;;;;5026027;28;20030;-60
2023/03/25 09:31:58;;;;;;;13.68;4.05;;;18.90;99.90;;;;;;5020664;28;20036;-60
2023/03/25 09:34:27;;;;;;;12.55;3.33;;;18.90;99.90;;;;;;5031655;28;20421;-61
2023/03/25 09:36:55;;;;;;;15.30;3.38;;;18.90;99.90;;;;;;5038554;28;20608;-60
2023/03/25 09:39:22;;;;;;;9.98;3.63;;;18.90;99.90;;;;;;5034657;28;20056;-61
2023/03/25 09:42:17;;;;;;;10.30;3.63;;;18.90;99.90;;;;;;5023078;28;20107;-62
2023/03/25 09:45:03;;;;;;;13.02;3.63;;;18.90;99.90;;;;;;5019262;28;20113;-63
2023/03/25 09:47:33;;;;;;;12.15;3.45;;;18.90;99.90;;;;;;5026535;28;20056;-61
2023/03/25 09:50:06;;;;;;;10.60;3.42;;;18.90;99.90;;;;;;5023388;28;20021;-60
2023/03/25 09:52:53;;;;;;;8.15;3.53;;;18.90;99.90;;;;;;5017792;28;20112;-61
2023/03/25 09:55:28;;;;;;;11.15;3.30;;;18.90;99.90;;;;;;5036555;28;20037;-62
2023/03/25 09:58:21;;;;;;;13.35;3.88;;;18.90;99.90;;;;;;5026791;28;20056;-60
2023/03/25 10:01:14;;;;;;;14.75;3.63;;;18.90;99.90;;;;;;5019450;28;20025;-62
2023/03/25 10:03:55;;;;;;;14.73;3.25;;;18.90;99.90;;;;;;5021104;28;20099;-61
2023/03/25 10:06:26;;;;;;;7.75;4.10;;;18.90;99.90;;;;;;5045887;28;20030;-62
2023/03/25 10:08:59;;;;;;;11.75;3.45;;;18.90;99.90;;;;;;5026270;28;20732;-62
2023/03/25 10:11:46;;;;;;;9.55;3.30;;;18.90;99.90;;;;;;5024205;28;20052;-62
2023/03/25 10:14:42;;;;;;;10.80;3.92;;;18.90;99.90;;;;;;5028719;28;20580;-62
2023/03/25 10:17:13;;;;;;;17.35;4.18;;;18.90;99.90;;;;;;5025988;28;20053;-61
2023/03/25 10:19:59;;;;;;;13.65;3.40;;;18.90;99.90;;;;;;5036660;28;20022;-61
2023/03/25 10:22:49;;;;;;;13.70;3.55;;;18.90;99.90;;;;;;5039554;28;20103;-62
2023/03/25 10:25:23;;;;;;;10.65;3.13;;;18.80;99.90;;;;;;5011443;28;20034;-61
2023/03/25 10:27:52;;;;;;;8.80;4.10;;;18.80;99.90;;;;;;5025949;28;20025;-62
2023/03/25 10:30:31;;;;;;;10.57;4.15;;;18.80;99.90;;;;;;5023708;28;20038;-62
2023/03/25 10:33:01;;;;;;;15.13;4.18;;;18.90;99.90;;;;;;5031734;28;20026;-61
2023/03/25 10:35:31;;;;;;;9.98;4.15;;;18.80;99.90;;;;;;5044846;28;20033;-61
2023/03/25 10:38:22;;;;;;;13.10;3.88;;;18.80;99.90;;;;;;5029658;28;20029;-61
2023/03/25 10:41:20;;;;;;;10.25;3.08;;;18.90;99.90;;;;;;5033773;28;20029;-62
2023/03/25 10:43:47;;;;;;;8.95;3.03;;;18.80;99.90;;;;;;5023874;28;20026;-62
2023/03/25 10:46:18;;;;;;;8.90;3.10;;;18.80;99.90;;;;;;5024982;28;20451;-61
2023/03/25 10:48:46;;;;;;;6.20;2.55;;;18.80;99.90;;;;;;5032175;28;20112;-62
2023/03/25 10:51:20;;;;;;;9.00;2.63;;;18.80;99.90;;;;;;5044022;28;20033;-61
2023/03/25 10:53:51;;;;;;;5.55;2.78;;;18.80;99.90;;;;;;5027650;28;20147;-61
2023/03/25 10:56:34;;;;;;;8.65;3.10;;;18.80;99.90;;;;;;5015768;28;20485;-62
2023/03/25 10:59:26;;;;;;;17.13;3.10;;;18.80;99.90;;;;;;5021086;28;20073;-62
2023/03/25 11:01:56;;;;;;;7.50;2.35;;;18.80;99.90;;;;;;5007344;28;20460;-62
2023/03/25 11:04:33;;;;;;;8.40;3.20;;;18.80;99.90;;;;;;5018009;28;20030;-61
2023/03/25 11:07:04;;;;;;;12.68;3.97;;;18.80;99.90;;;;;;5024648;28;20049;-62
2023/03/25 11:09:35;;;;;;;10.30;2.67;;;18.70;99.90;;;;;;5022520;28;20034;-62
2023/03/25 11:12:06;;;;;;;8.45;2.42;;;18.80;99.90;;;;;;5023968;28;20409;-61
2023/03/25 11:14:38;;;;;;;10.55;3.00;;;18.80;99.90;;;;;;5018396;28;20045;-62
2023/03/25 11:17:33;;;;;;;7.07;2.67;;;18.70;99.90;;;;;;5013613;28;20029;-61
2023/03/25 11:20:06;;;;;;;6.90;2.63;;;18.70;99.90;;;;;;5018916;28;20033;-62
2023/03/25 11:22:45;;;;;;;8.85;2.92;;;18.70;99.90;;;;;;5022338;28;20033;-62
2023/03/25 11:25:31;;;;;;;12.05;2.58;;;18.70;99.90;;;;;;5007521;28;20080;-61
2023/03/25 11:28:13;;;;;;;14.15;3.28;;;18.60;99.90;;;;;;5024486;28;20029;-61
2023/03/25 11:31:17;;;;;;;9.25;2.30;;;18.60;99.90;;;;;;5008557;28;20034;-61
2023/03/25 11:34:13;;;;;;;11.18;2.35;;;18.60;99.90;;;;;;5017654;28;20512;-61
2023/03/25 11:36:55;;;;;;;6.03;2.53;;;18.60;99.90;;;;;;5010242;28;20029;-63
2023/03/25 11:39:34;;;;;;;7.43;2.67;;;18.50;99.90;;;;;;5019506;28;20053;-62
2023/03/25 11:42:16;;;;;;;12.75;3.17;;;18.50;99.90;;;;;;5025125;28;20104;-62
2023/03/25 11:44:53;;;;;;;8.45;3.40;;;18.50;99.90;;;;;;5014572;28;20026;-62
2023/03/25 11:47:30;;;;;;;11.52;2.92;;;18.50;99.90;;;;;;5009847;28;20036;-62
2023/03/25 11:49:58;;;;;;;10.13;3.05;;;18.40;99.90;;;;;;5014335;28;20036;-66
2023/03/25 11:52:31;;;;;;;12.65;4.03;;;18.40;99.90;;;;;;5016409;28;20029;-66
2023/03/25 11:55:01;;;;;;;7.60;2.80;;;18.40;99.90;;;;;;5021793;28;20042;-66
2023/03/25 11:57:38;;;;;;;11.43;2.85;;;18.40;99.90;;;;;;5011587;28;20033;-66
2023/03/25 12:00:20;;;;;;;9.23;2.95;;;18.40;99.90;;;;;;5017144;28;20101;-66
2023/03/25 12:03:00;;;;;;;9.65;2.80;;;18.40;99.90;;;;;;5010253;28;20490;-66
2023/03/25 12:05:28;;;;;;;6.40;2.55;;;18.40;99.90;;;;;;5013276;28;20032;-65
2023/03/25 12:08:20;;;;;;;7.80;2.47;;;18.30;99.90;;;;;;5020485;28;20590;-65
2023/03/25 12:11:04;;;;;;;8.82;3.03;;;18.30;99.90;;;;;;5024797;28;20040;-66
2023/03/25 12:14:01;;;;;;;14.27;2.60;;;18.30;99.90;;;;;;5019575;28;20753;-66
2023/03/25 12:16:41;;;;;;;11.70;3.00;;;18.40;99.90;;;;;;5016694;28;20033;-64
2023/03/25 12:19:24;;;;;;;6.18;2.08;;;18.30;99.90;;;;;;5021503;28;20147;-65
2023/03/25 12:22:14;;;;;;;7.25;2.72;;;18.30;99.90;;;;;;5010897;28;20022;-63
2023/03/25 12:24:51;;;;;;;11.48;2.58;;;18.30;99.90;;;;;;4993454;28;20073;-66
2023/03/25 12:27:24;;;;;;;9.68;2.80;;;18.30;99.90;;;;;;5011729;28;20069;-65
2023/03/25 12:30:26;;;;;;;9.67;2.90;;;18.30;99.90;;;;;;5034588;28;20030;-65
2023/03/25 12:33:05;;;;;;;6.15;2.70;;;18.40;99.90;;;;;;5019554;28;20112;-64
2023/03/25 12:35:56;;;;;;;6.95;2.15;;;18.30;99.90;;;;;;5020901;28;20044;-64
2023/03/25 12:38:39;;;;;;;9.55;3.00;;;18.40;99.90;;;;;;5007704;28;20721;-65
2023/03/25 12:41:31;;;;;;;6.35;2.45;;;18.40;99.90;;;;;;5024974;28;20052;-64
2023/03/25 12:44:29;;;;;;;6.20;2.53;;;18.40;99.90;;;;;;5027233;28;20028;-65
2023/03/25 12:47:20;;;;;;;12.40;2.90;;;18.40;99.90;;;;;;5029095;28;20073;-65
2023/03/25 12:50:30;;;;;;;12.15;3.85;;;18.40;99.90;;;;;;5024950;28;20073;-65
2023/03/25 12:53:22;;;;;;;8.52;2.75;;;18.40;99.90;;;;;;5010472;28;20041;-64
2023/03/25 12:56:07;;;;;;;9.50;2.35;;;18.40;99.90;;;;;;5024660;28;20033;-65
2023/03/25 12:58:38;;;;;;;12.43;3.10;;;18.40;99.90;;;;;;5021716;28;20552;-65
2023/03/25 13:01:39;;;;;;;10.82;3.10;;;18.40;99.90;;;;;;5016539;28;20061;-65
2023/03/25 13:04:19;;;;;;;12.98;3.40;;;18.40;99.90;;;;;;5014248;28;20022;-64
2023/03/25 13:06:57;;;;;;;10.85;3.22;;;18.40;99.90;;;;;;5016958;28;20144;-65
2023/03/25 13:09:43;;;;;;;10.70;2.42;;;18.30;99.90;;;;;;5020168;28;20048;-64
2023/03/25 13:12:21;;;;;;;14.27;2.65;;;18.40;99.90;;;;;;5016935;28;20021;-64
2023/03/25 13:15:03;;;;;;;7.80;2.97;;;18.30;99.90;;;;;;5022985;28;20044;-65
2023/03/25 13:18:02;;;;;;;9.63;3.03;;;18.30;99.90;;;;;;5034746;28;20443;-65
2023/03/25 13:20:37;;;;;;;10.75;3.03;;;18.30;99.90;;;;;;5031145;28;20025;-66
2023/03/25 13:23:08;;;;;;;9.13;3.08;;;18.30;99.90;;;;;;5020405;28;20510;-64